»·PEaware :: N799DS KCRQ-KRIV

N799DS :: KCRQ-KRIV

FLIGHT INFORMATION

Flight Status: Arrived
Operator: Privately registered:
United States
More flights under this callsign
Pilot: Wolfgang B. (15069)
Aircraft: CESSNA 172 SKYHAWK
(C172)
More flights by this aircraft type
Origin: KCRQ McClellan-Palomar
United States
Destination: KRIV March ARB
United States
More flights between these airports :: More routes between these airports
Route: +OCN V23 DANAH V363 POXKU V8 PDZ
File this flight plan on PilotEdge
Remarks:
Altitude:
(Current/Filed)
6,000ft
Speed:
(Current/Filed)
115kts
Departed: 21-Apr-17 07:41 PM
Arrived: 21-Apr-17 08:37 PM
Distance/Time
Traveled:
45nm/0:55
Distance/Time
To Go:
Arrived

Flight Plot

Page will automatically refresh every two minutes.


Map Options




Map Legend


Flown Route
Filed Route
Departure Airport
Arrival Airport
Navaid (VOR, NDB)
Fix

Horizontal Profiles

Position Reports

Time Latitude Longitude Heading Altitude Ground
Speed
21-Apr-17 19:22 33.127550 -117.274801 257 307ft 0kts
21-Apr-17 19:23 33.127550 -117.274801 257 307ft 0kts
21-Apr-17 19:24 33.127550 -117.274801 257 307ft 0kts
21-Apr-17 19:25 33.127550 -117.274801 257 307ft 0kts
21-Apr-17 19:26 33.127550 -117.274801 257 307ft 0kts
21-Apr-17 19:27 33.127550 -117.274801 257 307ft 0kts
21-Apr-17 19:28 33.127550 -117.274801 257 307ft 0kts
21-Apr-17 19:29 33.127550 -117.274801 257 307ft 0kts
21-Apr-17 19:30 33.127550 -117.274801 257 307ft 0kts
21-Apr-17 19:31 33.127550 -117.274801 257 307ft 0kts
21-Apr-17 19:32 33.127550 -117.274801 257 307ft 0kts
21-Apr-17 19:33 33.127550 -117.274801 257 307ft 0kts
21-Apr-17 19:34 33.127550 -117.274801 257 307ft 0kts
21-Apr-17 19:35 33.127550 -117.274801 257 307ft 0kts
21-Apr-17 19:36 33.127550 -117.274801 257 307ft 0kts
21-Apr-17 19:37 33.127540 -117.274856 257 307ft 0kts
21-Apr-17 19:38 33.128196 -117.275127 77 309ft 9kts
21-Apr-17 19:39 33.128588 -117.272995 59 302ft 0kts
21-Apr-17 19:40 33.128588 -117.272995 59 302ft 0kts
21-Apr-17 19:41 33.129388 -117.273113 256 306ft 25kts
21-Apr-17 19:42 33.127434 -117.294998 260 1070ft 68kts
21-Apr-17 19:43 33.125228 -117.318498 257 1912ft 77kts
21-Apr-17 19:44 33.123094 -117.341518 263 2776ft 71kts
21-Apr-17 19:45 33.120105 -117.365411 264 3562ft 74kts
21-Apr-17 19:46 33.138355 -117.376447 340 4314ft 81kts
21-Apr-17 19:47 33.159235 -117.383537 334 5069ft 76kts
21-Apr-17 19:48 33.179484 -117.390679 338 5738ft 78kts
21-Apr-17 19:49 33.202577 -117.399715 336 5997ft 103kts
21-Apr-17 19:50 33.231823 -117.413297 338 5992ft 117kts
21-Apr-17 19:51 33.256775 -117.436655 316 5992ft 115kts
21-Apr-17 19:52 33.279742 -117.463167 316 5992ft 115kts
21-Apr-17 19:53 33.302747 -117.489886 316 5992ft 116kts
21-Apr-17 19:54 33.325671 -117.516594 316 5992ft 116kts
21-Apr-17 19:55 33.348765 -117.543530 316 6004ft 115kts
21-Apr-17 19:56 33.371546 -117.570130 316 6020ft 115kts
21-Apr-17 19:57 33.394594 -117.597063 316 6020ft 116kts
21-Apr-17 19:58 33.417628 -117.623983 316 6017ft 115kts
21-Apr-17 19:59 33.440227 -117.650423 315 6014ft 115kts
21-Apr-17 20:00 33.462624 -117.676635 314 6010ft 115kts
21-Apr-17 20:01 33.488139 -117.698359 344 6006ft 117kts
21-Apr-17 20:02 33.520573 -117.704496 348 6001ft 119kts
21-Apr-17 20:03 33.553268 -117.710187 348 5998ft 120kts
21-Apr-17 20:04 33.586549 -117.715881 348 5994ft 121kts
21-Apr-17 20:05 33.619779 -117.721518 348 5993ft 122kts
21-Apr-17 20:06 33.653316 -117.727162 348 5994ft 122kts
21-Apr-17 20:07 33.685878 -117.735873 335 5995ft 120kts
21-Apr-17 20:08 33.716494 -117.750041 335 5995ft 119kts
21-Apr-17 20:09 33.747278 -117.764516 335 5995ft 119kts
21-Apr-17 20:10 33.777680 -117.778837 335 5995ft 119kts
21-Apr-17 20:11 33.811150 -117.781300 355 5995ft 121kts
21-Apr-17 20:12 33.844486 -117.781945 1 5992ft 121kts
21-Apr-17 20:13 33.861459 -117.748251 68 6007ft 124kts
21-Apr-17 20:14 33.872015 -117.708823 69 6011ft 124kts
21-Apr-17 20:15 33.882358 -117.668948 69 6014ft 125kts
21-Apr-17 20:16 33.892656 -117.629100 69 6017ft 125kts
21-Apr-17 20:17 33.902980 -117.589081 69 6020ft 126kts
21-Apr-17 20:18 33.913264 -117.549166 69 6020ft 126kts
21-Apr-17 20:19 33.905912 -117.510144 121 6021ft 129kts
21-Apr-17 20:20 33.887600 -117.473018 120 6023ft 129kts
21-Apr-17 20:21 33.869395 -117.435975 120 6026ft 129kts
21-Apr-17 20:22 33.851183 -117.398851 120 6030ft 129kts
21-Apr-17 20:23 33.832772 -117.361336 120 5954ft 132kts
21-Apr-17 20:24 33.816136 -117.327540 121 5955ft 129kts
21-Apr-17 20:25 33.797882 -117.290709 121 5959ft 128kts
21-Apr-17 20:26 33.779436 -117.254898 139 5953ft 128kts
21-Apr-17 20:27 33.748910 -117.233681 151 5273ft 128kts
21-Apr-17 20:29 33.718276 -117.213354 150 4442ft 125kts
21-Apr-17 20:30 33.700878 -117.184330 42 3923ft 129kts
21-Apr-17 20:31 33.730166 -117.162564 354 3934ft 126kts
21-Apr-17 20:32 33.761624 -117.174365 330 3658ft 111kts
21-Apr-17 20:33 33.787341 -117.193016 324 3105ft 108kts
21-Apr-17 20:34 33.812426 -117.210712 325 2607ft 104kts
21-Apr-17 20:35 33.836896 -117.227708 325 2120ft 99kts
21-Apr-17 20:36 33.855678 -117.241513 327 1723ft 61kts
21-Apr-17 20:37 33.869481 -117.251525 332 1489ft 43kts
21-Apr-17 20:38 33.877999 -117.257537 329 1505ft 45kts
21-Apr-17 20:39 33.883662 -117.258252 83 1510ft 0kts
21-Apr-17 20:40 33.883670 -117.258058 89 1510ft 6kts
21-Apr-17 20:41 33.884094 -117.253315 40 1505ft 0kts
21-Apr-17 20:42 33.885882 -117.251976 145 1505ft 20kts
21-Apr-17 20:43 33.878889 -117.250119 208 1493ft 32kts
21-Apr-17 20:44 33.873223 -117.250758 154 1492ft 21kts
21-Apr-17 20:45 33.867342 -117.246903 121 1483ft 19kts
21-Apr-17 20:46 33.871988 -117.247374 20 1485ft 6kts
21-Apr-17 20:47 33.872027 -117.247357 17 1485ft 0kts
21-Apr-17 20:48 33.872027 -117.247357 17 1485ft 0kts
21-Apr-17 20:49 33.872027 -117.247357 17 1485ft 0kts
21-Apr-17 20:50 33.872027 -117.247357 17 1485ft 0kts
21-Apr-17 20:51 33.872027 -117.247357 17 1485ft 0kts
21-Apr-17 20:52 33.872027 -117.247357 17 1485ft 0kts
21-Apr-17 20:53 33.872027 -117.247357 17 1485ft 0kts

Navigation Log

Ident Type
Flight plan parsing failed, navigation log unavailable